Time;durP1;ratioP1;P1;durP2;ratioP2;P2;SDS_P1;SDS_P2;PMS_P1;PMS_P2;Temp;Humidity;BMP_temperature;BMP_pressure;BME280_temperature;BME280_humidity;BME280_pressure;Samples;Min_cycle;Max_cycle;Signal;HPM_P1;HPM_P2
2023/01/06 00:02:01;;;;;;;4.80;2.65;;;;;;;9.37;96.13;101752.16;5072876;28;20463;-82
2023/01/06 00:04:26;;;;;;;6.50;2.70;;;;;;;9.37;96.11;101746.13;5055174;28;20053;-83
2023/01/06 00:06:52;;;;;;;7.40;3.00;;;;;;;9.39;96.19;101744.38;5054839;28;20388;-82
2023/01/06 00:09:17;;;;;;;7.68;3.03;;;;;;;9.41;96.25;101738.28;5073751;28;20029;-82
2023/01/06 00:11:42;;;;;;;7.28;2.97;;;;;;;9.42;95.95;101728.75;5061453;28;20025;-82
2023/01/06 00:14:08;;;;;;;5.88;2.90;;;;;;;9.41;95.84;101719.22;5072321;28;20043;-82
2023/01/06 00:16:34;;;;;;;6.32;2.92;;;;;;;9.42;95.81;101723.56;5068582;28;20020;-82
2023/01/06 00:19:00;;;;;;;7.85;2.70;;;;;;;9.43;95.73;101714.88;5058152;28;20033;-82
2023/01/06 00:21:26;;;;;;;6.15;2.92;;;;;;;9.43;95.79;101712.28;5054955;28;20092;-82
2023/01/06 00:23:51;;;;;;;6.05;2.80;;;;;;;9.43;96.08;101714.03;5062670;28;20059;-82
2023/01/06 00:26:17;;;;;;;6.43;3.47;;;;;;;9.42;95.77;101713.16;5058033;28;20177;-83
2023/01/06 00:28:42;;;;;;;6.30;3.28;;;;;;;9.43;96.02;101714.03;5068362;28;20024;-82
2023/01/06 00:31:13;;;;;;;8.45;3.70;;;;;;;9.43;95.86;101711.44;5072841;28;20356;-82
2023/01/06 00:33:39;;;;;;;8.33;3.90;;;;;;;9.45;95.96;101713.16;5073228;28;20024;-82
2023/01/06 00:36:07;;;;;;;7.47;3.50;;;;;;;9.44;95.90;101714.03;5061711;28;20029;-82
2023/01/06 00:38:35;;;;;;;7.78;3.67;;;;;;;9.43;95.77;101720.09;5054517;28;20032;-82
2023/01/06 00:41:03;;;;;;;6.32;3.00;;;;;;;9.45;95.46;101718.34;5051985;28;20460;-82
2023/01/06 00:43:30;;;;;;;6.57;2.97;;;;;;;9.44;95.50;101713.16;5073101;28;20035;-82
2023/01/06 00:45:55;;;;;;;6.13;2.72;;;;;;;9.41;95.50;101701.94;5070451;28;20127;-82
2023/01/06 00:48:20;;;;;;;6.72;2.70;;;;;;;9.46;95.14;101712.28;5057548;28;20067;-82
2023/01/06 00:50:46;;;;;;;5.57;2.72;;;;;;;9.45;95.34;101707.94;5059762;28;20036;-82
2023/01/06 00:53:11;;;;;;;4.35;2.20;;;;;;;9.46;94.88;101707.09;5072884;28;20020;-83
2023/01/06 00:55:36;;;;;;;6.45;2.25;;;;;;;9.46;94.87;101707.09;5060699;28;20120;-82
2023/01/06 00:58:02;;;;;;;6.07;2.25;;;;;;;9.44;94.96;101705.38;5070110;28;20024;-82
2023/01/06 01:00:27;;;;;;;5.45;2.40;;;;;;;9.45;94.94;101707.09;5068444;28;20043;-82
2023/01/06 01:02:52;;;;;;;5.60;2.40;;;;;;;9.44;94.76;101714.03;5069293;28;20025;-82
2023/01/06 01:05:18;;;;;;;5.28;2.08;;;;;;;9.46;94.50;101711.44;5045675;28;20021;-82
2023/01/06 01:07:43;;;;;;;4.07;2.00;;;;;;;9.45;94.37;101718.34;5070730;28;20085;-82
2023/01/06 01:10:09;;;;;;;3.03;1.88;;;;;;;9.44;94.51;101719.22;5060696;28;20021;-82
2023/01/06 01:12:34;;;;;;;5.15;2.13;;;;;;;9.43;94.45;101712.28;5053914;28;20021;-83
2023/01/06 01:14:59;;;;;;;5.93;1.95;;;;;;;9.43;94.28;101704.50;5066275;28;20032;-82
2023/01/06 01:17:27;;;;;;;5.22;2.10;;;;;;;9.45;94.17;101707.94;5057820;28;20036;-82
2023/01/06 01:19:54;;;;;;;3.75;1.80;;;;;;;9.45;94.11;101700.16;5053677;28;20212;-83
2023/01/06 01:22:21;;;;;;;4.32;2.00;;;;;;;9.46;93.98;101704.47;5072634;28;20035;-82
2023/01/06 01:24:46;;;;;;;5.15;2.00;;;;;;;9.45;93.90;101701.91;5072127;28;20097;-82
2023/01/06 01:27:12;;;;;;;5.63;1.95;;;;;;;9.46;93.54;101693.25;5071520;28;20463;-82
2023/01/06 01:29:37;;;;;;;5.18;1.70;;;;;;;9.47;93.53;101698.41;5072386;28;20035;-82
2023/01/06 01:32:02;;;;;;;4.10;1.70;;;;;;;9.46;93.37;101699.28;5072184;28;20028;-82
2023/01/06 01:34:28;;;;;;;2.78;1.52;;;;;;;9.44;93.35;101698.44;5072059;28;20020;-82
2023/01/06 01:36:54;;;;;;;6.07;1.83;;;;;;;9.45;93.25;101692.38;5071469;28;20028;-82
2023/01/06 01:39:22;;;;;;;7.05;1.90;;;;;;;9.43;93.22;101694.09;5053731;28;20154;-82
2023/01/06 01:41:48;;;;;;;4.30;1.60;;;;;;;9.44;92.64;101682.00;5035538;28;20387;-82
2023/01/06 01:44:51;;;;;;;3.60;1.50;;;;;;;9.45;93.04;101684.56;5053333;28;20021;-82
2023/01/06 01:47:45;;;;;;;2.75;1.17;;;;;;;9.45;93.13;101663.78;5063979;28;20158;-82
2023/01/06 01:50:33;;;;;;;4.60;1.50;;;;;;;9.43;92.87;101668.13;5067751;28;20484;-82
2023/01/06 01:53:27;;;;;;;3.92;1.27;;;;;;;9.43;92.53;101668.13;5065361;28;20044;-82
2023/01/06 01:55:56;;;;;;;5.15;1.40;;;;;;;9.40;92.26;101665.56;5057898;28;20032;-82
2023/01/06 01:58:32;;;;;;;2.22;1.13;;;;;;;9.40;92.34;101671.63;5071442;28;20152;-82
2023/01/06 02:00:57;;;;;;;2.78;1.40;;;;;;;9.40;92.02;101665.56;5071014;28;20396;-82
2023/01/06 02:03:24;;;;;;;3.72;1.10;;;;;;;9.40;91.97;101657.75;5071368;28;20044;-82
2023/01/06 02:05:54;;;;;;;3.10;1.00;;;;;;;9.38;91.78;101656.94;5070756;28;20035;-82
2023/01/06 02:08:42;;;;;;;3.13;0.90;;;;;;;9.38;91.82;101665.59;5070725;28;20039;-82
2023/01/06 02:11:08;;;;;;;5.88;1.00;;;;;;;9.39;91.66;101653.47;5063376;28;20041;-82
2023/01/06 02:13:37;;;;;;;3.40;1.00;;;;;;;9.39;91.39;101645.69;5069021;28;20448;-82
2023/01/06 02:16:41;;;;;;;3.80;1.08;;;;;;;9.41;91.51;101655.19;5068171;28;20024;-82
2023/01/06 02:19:27;;;;;;;2.60;1.00;;;;;;;9.41;91.36;101643.91;5056706;28;20065;-82
2023/01/06 02:21:59;;;;;;;3.15;1.10;;;;;;;9.41;90.94;101643.91;5069058;28;20032;-82
2023/01/06 02:25:01;;;;;;;2.30;0.90;;;;;;;9.42;90.93;101640.44;5068888;28;20028;-82
2023/01/06 02:27:32;;;;;;;2.70;1.00;;;;;;;9.42;90.50;101640.44;5066332;28;20086;-82
2023/01/06 02:30:18;;;;;;;4.68;1.00;;;;;;;9.43;90.68;101644.75;5072404;28;20113;-82
2023/01/06 02:32:49;;;;;;;3.25;1.00;;;;;;;9.42;90.46;101645.63;5060982;28;20033;-82
2023/01/06 02:35:30;;;;;;;4.22;1.00;;;;;;;9.41;89.89;101639.59;5066864;28;20032;-82
2023/01/06 02:38:29;;;;;;;2.58;0.77;;;;;;;9.45;89.93;101637.81;5069777;28;20059;-82
2023/01/06 02:41:14;;;;;;;2.92;0.98;;;;;;;9.44;89.61;101635.25;5058676;28;20037;-83
2023/01/06 02:43:52;;;;;;;3.72;0.90;;;;;;;9.46;89.09;101620.53;5072303;28;20039;-82
2023/01/06 02:46:27;;;;;;;3.28;0.95;;;;;;;9.44;89.21;101612.72;5059261;28;20764;-82
2023/01/06 02:48:55;;;;;;;2.10;0.90;;;;;;;9.48;88.49;101619.63;5058376;28;20075;-82
2023/01/06 02:51:30;;;;;;;1.55;0.80;;;;;;;9.48;88.37;101610.97;5055051;28;20025;-82
2023/01/06 02:54:18;;;;;;;2.63;0.80;;;;;;;9.50;88.75;101604.00;5064885;28;20032;-82
2023/01/06 02:56:52;;;;;;;4.05;1.00;;;;;;;9.49;87.99;101590.19;5062284;28;20036;-82
2023/01/06 02:59:24;;;;;;;4.60;1.00;;;;;;;9.47;87.76;101594.53;5064428;28;20108;-82
2023/01/06 03:01:53;;;;;;;2.08;0.70;;;;;;;9.48;87.55;101593.66;5052918;28;20032;-82
2023/01/06 03:04:23;;;;;;;3.08;0.98;;;;;;;9.48;87.70;101591.06;5059435;28;20045;-82
2023/01/06 03:06:51;;;;;;;2.50;0.90;;;;;;;9.47;87.48;101591.94;5064502;28;20067;-82
2023/01/06 03:09:20;;;;;;;2.50;0.90;;;;;;;9.47;87.35;101589.31;5068513;28;20103;-82
2023/01/06 03:11:49;;;;;;;2.00;0.80;;;;;;;9.48;87.29;101587.59;5052497;28;20048;-82
2023/01/06 03:14:18;;;;;;;1.88;0.68;;;;;;;9.47;87.10;101586.72;5065144;28;20059;-82
2023/01/06 03:16:44;;;;;;;2.03;0.70;;;;;;;9.48;86.82;101591.06;5071171;28;20055;-82
2023/01/06 03:19:09;;;;;;;3.10;1.10;;;;;;;9.49;86.96;101585.00;5073316;28;20060;-82
2023/01/06 03:21:39;;;;;;;2.85;0.85;;;;;;;9.50;86.74;101591.03;5075953;28;20036;-82
2023/01/06 03:24:06;;;;;;;1.77;0.77;;;;;;;9.52;86.54;101581.50;5075142;28;20032;-83
2023/01/06 03:26:33;;;;;;;3.28;0.80;;;;;;;9.52;86.37;101579.78;5075342;28;20035;-82
2023/01/06 03:28:59;;;;;;;3.08;0.80;;;;;;;9.51;86.15;101582.38;5075579;28;20035;-82
2023/01/06 03:31:44;;;;;;;3.22;0.90;;;;;;;9.51;86.44;101570.25;5075726;28;20028;-82
2023/01/06 03:34:36;;;;;;;2.50;0.80;;;;;;;9.54;86.40;101577.13;5074309;28;20066;-82
2023/01/06 03:37:10;;;;;;;3.78;0.80;;;;;;;9.52;86.19;101578.88;5075210;28;20250;-82
2023/01/06 03:39:49;;;;;;;5.95;1.13;;;;;;;9.51;86.03;101571.97;5075644;28;20029;-82
2023/01/06 03:45:31;;;;;;;2.03;0.75;;;;;;;9.50;86.00;101565.94;5075396;28;20510;-82
2023/01/06 03:48:18;;;;;;;2.40;0.90;;;;;;;9.52;86.36;101551.19;5048202;28;20072;-82
2023/01/06 03:51:00;;;;;;;2.75;0.85;;;;;;;9.51;85.72;101554.66;5059300;28;20025;-82
2023/01/06 03:53:52;;;;;;;3.13;0.90;;;;;;;9.52;85.84;101560.72;5059351;28;20097;-82
2023/01/06 03:56:32;;;;;;;2.22;0.70;;;;;;;9.51;85.63;101567.66;5073306;28;20028;-82
2023/01/06 03:59:02;;;;;;;3.47;0.90;;;;;;;9.51;85.62;101572.84;5051332;28;20161;-83
2023/01/06 04:01:29;;;;;;;2.10;0.80;;;;;;;9.49;85.62;101572.00;5061057;28;20111;-83
2023/01/06 04:03:55;;;;;;;3.75;0.98;;;;;;;9.55;85.33;101574.56;5078337;28;20071;-82
2023/01/06 04:06:21;;;;;;;2.55;0.77;;;;;;;9.55;85.50;101573.66;5066900;28;20480;-82
2023/01/06 04:08:46;;;;;;;2.35;0.80;;;;;;;9.54;85.69;101575.41;5057809;28;20512;-82
2023/01/06 04:12:37;;;;;;;3.53;1.10;;;;;;;9.54;85.82;101567.63;5069764;28;20024;-82
2023/01/06 04:13:57;;;;;;;2.40;0.85;;;;;;;9.57;85.37;101556.34;5063514;28;20501;-83
2023/01/06 04:16:23;;;;;;;4.00;0.98;;;;;;;9.57;85.28;101557.19;5067396;28;20024;-83
2023/01/06 04:18:48;;;;;;;1.77;0.80;;;;;;;9.55;85.65;101547.69;5074640;28;20082;-82
2023/01/06 04:21:13;;;;;;;3.80;1.00;;;;;;;9.51;85.80;101533.88;5073697;28;20025;-82
2023/01/06 04:23:39;;;;;;;2.60;0.90;;;;;;;9.53;85.61;101539.06;5062660;28;20029;-82
2023/01/06 04:26:04;;;;;;;3.55;0.82;;;;;;;9.54;85.91;101522.59;5072314;28;20036;-82
2023/01/06 04:28:29;;;;;;;1.33;0.70;;;;;;;9.53;86.03;101523.47;5068318;28;20165;-82
2023/01/06 04:30:59;;;;;;;2.17;0.80;;;;;;;9.55;85.76;101527.78;5067602;28;20593;-84
2023/01/06 04:33:25;;;;;;;4.20;0.90;;;;;;;9.53;86.20;101513.06;5073326;28;20400;-82
2023/01/06 04:35:50;;;;;;;1.52;0.80;;;;;;;9.50;86.09;101507.91;5043611;28;20507;-82
2023/01/06 04:38:15;;;;;;;2.30;0.95;;;;;;;9.48;86.52;101510.53;5054396;28;20021;-82
2023/01/06 04:40:41;;;;;;;2.63;0.80;;;;;;;9.47;86.16;101503.63;5059907;28;20107;-82
2023/01/06 04:43:12;;;;;;;3.47;0.80;;;;;;;9.46;86.58;101503.66;5072476;28;20464;-82
2023/01/06 04:45:39;;;;;;;2.13;0.85;;;;;;;9.46;86.42;101495.84;5069184;28;20028;-82
2023/01/06 04:48:05;;;;;;;1.98;0.80;;;;;;;9.47;86.66;101498.44;5058572;28;20107;-82
2023/01/06 04:50:31;;;;;;;3.58;0.80;;;;;;;9.46;86.46;101494.09;5063964;28;20029;-82
2023/01/06 04:52:56;;;;;;;1.98;0.80;;;;;;;9.46;86.69;101486.31;5068990;28;20037;-82
2023/01/06 04:55:22;;;;;;;1.85;0.90;;;;;;;9.45;86.63;101489.78;5072899;28;20020;-82
2023/01/06 04:57:47;;;;;;;3.22;0.82;;;;;;;9.45;86.83;101481.16;5056284;28;20112;-83
2023/01/06 05:00:13;;;;;;;2.03;0.73;;;;;;;9.43;86.96;101478.53;5073254;28;20024;-83
2023/01/06 05:02:38;;;;;;;1.70;0.70;;;;;;;9.44;87.03;101482.88;5064378;28;20054;-82
2023/01/06 05:05:04;;;;;;;4.88;0.80;;;;;;;9.44;86.58;101469.88;5053770;28;20025;-82
2023/01/06 05:07:29;;;;;;;2.50;1.10;;;;;;;9.46;86.52;101481.13;5068701;28;20105;-82
2023/01/06 05:09:54;;;;;;;1.42;0.60;;;;;;;9.47;86.45;101485.44;5072865;28;20115;-84
2023/01/06 05:12:20;;;;;;;2.67;0.70;;;;;;;9.49;86.35;101475.91;5072130;28;20017;-82
2023/01/06 05:14:45;;;;;;;1.75;0.68;;;;;;;9.49;86.32;101475.91;5068510;28;20099;-82
2023/01/06 05:17:11;;;;;;;2.13;0.50;;;;;;;9.49;86.38;101465.50;5063834;28;20012;-82
2023/01/06 05:19:36;;;;;;;1.48;0.90;;;;;;;9.50;86.11;101462.03;5072180;28;20027;-82
2023/01/06 05:22:01;;;;;;;1.30;0.63;;;;;;;9.52;85.90;101465.47;5071331;28;20032;-82
2023/01/06 05:24:27;;;;;;;1.25;0.70;;;;;;;9.52;85.65;101470.66;5073196;28;20100;-82
2023/01/06 05:26:53;;;;;;;1.75;0.70;;;;;;;9.55;85.57;101464.56;5057569;28;20029;-83
2023/01/06 05:29:19;;;;;;;1.92;0.57;;;;;;;9.54;86.08;101468.91;5044946;28;20112;-83
2023/01/06 05:31:44;;;;;;;1.45;0.70;;;;;;;9.54;85.63;101463.72;5070271;28;20044;-82
2023/01/06 05:34:10;;;;;;;1.52;0.70;;;;;;;9.55;85.70;101455.06;5073373;28;20103;-83
2023/01/06 05:36:35;;;;;;;1.42;0.50;;;;;;;9.55;85.60;101465.44;5073002;28;20048;-82
2023/01/06 05:39:01;;;;;;;1.73;0.60;;;;;;;9.55;85.87;101467.16;5070312;28;20064;-82
2023/01/06 05:41:26;;;;;;;1.13;0.57;;;;;;;9.56;85.69;101456.75;5055918;28;20044;-82
2023/01/06 05:43:51;;;;;;;1.20;0.50;;;;;;;9.57;85.52;101462.81;5067925;28;20033;-82
2023/01/06 05:46:17;;;;;;;1.52;0.50;;;;;;;9.60;85.40;101470.59;5061437;28;20461;-83
2023/01/06 05:48:42;;;;;;;1.45;0.70;;;;;;;9.60;85.38;101474.91;5054289;28;20029;-82
2023/01/06 05:51:11;;;;;;;1.70;0.50;;;;;;;9.58;85.38;101472.34;5053084;28;20029;-82
2023/01/06 05:53:38;;;;;;;1.10;0.70;;;;;;;9.59;85.34;101460.19;5058983;28;20048;-82
2023/01/06 05:56:06;;;;;;;2.03;0.50;;;;;;;9.61;85.27;101466.22;5064895;28;20029;-83
2023/01/06 05:58:35;;;;;;;1.52;0.57;;;;;;;9.63;85.21;101461.88;5069645;28;20024;-84
2023/01/06 06:01:01;;;;;;;1.30;0.65;;;;;;;9.62;85.16;101471.44;5063666;28;20020;-83
2023/01/06 06:03:26;;;;;;;1.05;0.60;;;;;;;9.60;85.15;101469.72;5069990;28;20036;-83
2023/01/06 06:05:52;;;;;;;1.95;0.60;;;;;;;9.59;85.24;101475.78;5072510;28;20036;-82
2023/01/06 06:08:17;;;;;;;2.90;0.80;;;;;;;9.59;85.75;101480.97;5072886;28;20442;-83
2023/01/06 06:10:42;;;;;;;3.08;0.65;;;;;;;9.60;85.17;101493.97;5072605;28;20549;-84
2023/01/06 06:13:08;;;;;;;2.25;0.80;;;;;;;9.62;85.27;101496.53;5069781;28;20029;-83
2023/01/06 06:15:33;;;;;;;1.48;0.60;;;;;;;9.61;85.11;101484.41;5070226;28;20028;-83
2023/01/06 06:18:00;;;;;;;1.42;0.80;;;;;;;9.60;85.91;101482.69;5069424;28;20036;-83
2023/01/06 06:20:26;;;;;;;2.40;0.60;;;;;;;9.61;85.72;101480.09;5058731;28;20404;-82
2023/01/06 06:22:51;;;;;;;1.70;0.65;;;;;;;9.62;85.73;101475.75;5071122;28;20495;-83
2023/01/06 06:25:17;;;;;;;2.05;0.75;;;;;;;9.60;85.82;101469.72;5062831;28;20376;-82
2023/01/06 06:27:42;;;;;;;2.20;0.57;;;;;;;9.56;85.98;101467.13;5071130;28;20020;-82
2023/01/06 06:30:07;;;;;;;2.70;0.70;;;;;;;9.53;86.01;101463.72;5070014;28;20472;-82
2023/01/06 06:32:33;;;;;;;0.90;0.60;;;;;;;9.55;86.37;101472.38;5069188;28;20024;-82
2023/01/06 06:34:58;;;;;;;1.55;0.60;;;;;;;9.55;86.15;101470.66;5065233;28;20021;-82
2023/01/06 06:37:23;;;;;;;1.77;0.60;;;;;;;9.55;85.93;101464.56;5057601;28;20070;-82
2023/01/06 06:39:48;;;;;;;1.38;0.70;;;;;;;9.54;86.24;101463.72;5071126;28;20031;-82
2023/01/06 06:42:14;;;;;;;2.85;0.77;;;;;;;9.55;86.12;101462.84;5065769;28;20024;-83
2023/01/06 06:44:39;;;;;;;0.93;0.60;;;;;;;9.55;86.20;101464.56;5067832;28;20024;-82
2023/01/06 06:47:04;;;;;;;1.58;0.80;;;;;;;9.56;85.94;101464.53;5069357;28;20032;-83
2023/01/06 06:49:31;;;;;;;1.63;0.68;;;;;;;9.60;85.98;101472.31;5070231;28;20056;-82
2023/01/06 06:51:56;;;;;;;1.20;0.80;;;;;;;9.60;86.19;101472.31;5069440;28;20478;-83
2023/01/06 06:54:21;;;;;;;1.20;0.70;;;;;;;9.62;86.26;101476.63;5072152;28;20028;-83
2023/01/06 06:56:47;;;;;;;2.42;0.80;;;;;;;9.63;86.65;101473.16;5074851;28;20033;-83
2023/01/06 06:59:12;;;;;;;2.47;0.70;;;;;;;9.61;86.44;101474.03;5056132;28;20025;-82
2023/01/06 07:01:37;;;;;;;1.52;0.80;;;;;;;9.62;86.81;101470.56;5064503;28;20036;-82
2023/01/06 07:04:03;;;;;;;1.48;0.60;;;;;;;9.61;87.20;101477.50;5070173;28;20487;-83
2023/01/06 07:06:28;;;;;;;2.60;0.52;;;;;;;9.57;87.64;101473.22;5074031;28;20032;-82
2023/01/06 07:08:53;;;;;;;1.33;0.70;;;;;;;9.56;87.76;101482.72;5070454;28;20510;-82
2023/01/06 07:11:19;;;;;;;1.67;0.70;;;;;;;9.53;87.86;101482.78;5063420;28;20028;-82
2023/01/06 07:13:45;;;;;;;1.23;0.63;;;;;;;9.54;87.96;101483.63;5045428;28;20060;-82
2023/01/06 07:16:11;;;;;;;2.65;0.90;;;;;;;9.57;87.77;101481.00;5056976;28;20032;-83
2023/01/06 07:18:36;;;;;;;3.75;0.80;;;;;;;9.57;87.66;101492.25;5060818;28;20105;-83
2023/01/06 07:21:02;;;;;;;1.63;0.80;;;;;;;9.53;88.13;101493.19;5074771;28;20028;-82
2023/01/06 07:23:29;;;;;;;4.18;1.10;;;;;;;9.52;88.73;101509.63;5075865;28;20035;-83
2023/01/06 07:25:56;;;;;;;3.97;1.08;;;;;;;9.56;88.79;101493.13;5057054;28;20024;-82
2023/01/06 07:28:22;;;;;;;2.22;0.77;;;;;;;9.53;89.42;101497.50;5075441;28;20481;-83
2023/01/06 07:30:48;;;;;;;3.03;0.93;;;;;;;9.49;89.93;101496.69;5052349;28;20028;-83
2023/01/06 07:33:14;;;;;;;1.80;1.08;;;;;;;9.46;90.64;101495.84;5075049;28;20131;-83
2023/01/06 07:35:39;;;;;;;2.25;0.77;;;;;;;9.44;90.44;101493.25;5053842;28;20024;-83
2023/01/06 07:38:06;;;;;;;1.83;0.90;;;;;;;9.40;90.82;101500.22;5074985;28;20031;-82
2023/01/06 07:40:32;;;;;;;2.10;1.15;;;;;;;9.37;91.10;101507.19;5069972;28;20035;-82
2023/01/06 07:43:01;;;;;;;1.88;1.10;;;;;;;9.37;91.08;101508.03;5073862;28;20025;-82
2023/01/06 07:45:26;;;;;;;1.50;1.13;;;;;;;9.36;91.32;101511.50;5059161;28;20065;-83
2023/01/06 07:47:54;;;;;;;1.88;1.00;;;;;;;9.37;91.50;101507.19;5056567;28;20072;-82
2023/01/06 07:50:20;;;;;;;1.58;1.00;;;;;;;9.36;91.60;101505.47;5063984;28;20027;-82
2023/01/06 07:52:45;;;;;;;2.47;0.90;;;;;;;9.33;92.14;101505.50;5067836;28;20036;-82
2023/01/06 07:55:10;;;;;;;2.25;0.90;;;;;;;9.31;92.02;101515.88;5069047;28;20452;-82
2023/01/06 07:57:35;;;;;;;2.15;1.10;;;;;;;9.31;92.01;101504.66;5055259;28;20042;-84
2023/01/06 08:00:01;;;;;;;2.33;1.00;;;;;;;9.30;92.28;101511.59;5065362;28;20220;-82
2023/01/06 08:02:26;;;;;;;2.03;1.00;;;;;;;9.32;92.35;101521.94;5072407;28;20107;-82
2023/01/06 08:04:51;;;;;;;1.77;1.20;;;;;;;9.32;92.48;101522.81;5066557;28;20040;-82
2023/01/06 08:07:17;;;;;;;2.40;1.05;;;;;;;9.32;92.69;101530.59;5067930;28;20036;-82
2023/01/06 08:09:42;;;;;;;2.30;1.00;;;;;;;9.31;92.68;101535.81;5066676;28;20033;-82
2023/01/06 08:12:07;;;;;;;3.58;1.10;;;;;;;9.31;92.12;101531.47;5064875;28;20032;-82
2023/01/06 08:14:33;;;;;;;2.35;1.00;;;;;;;9.31;93.22;101541.00;5074686;28;20028;-82
2023/01/06 08:16:58;;;;;;;1.77;1.13;;;;;;;9.33;93.05;101537.50;5058918;28;20479;-83
2023/01/06 08:19:23;;;;;;;2.28;1.10;;;;;;;9.33;92.90;101541.84;5067858;28;20028;-82
2023/01/06 08:21:48;;;;;;;2.17;1.08;;;;;;;9.33;93.02;101542.69;5071054;28;20028;-82
2023/01/06 08:24:14;;;;;;;1.42;1.08;;;;;;;9.37;92.72;101540.97;5074802;28;20032;-82
2023/01/06 08:26:39;;;;;;;3.28;1.48;;;;;;;9.39;92.83;101544.41;5073918;28;20059;-83
2023/01/06 08:29:04;;;;;;;1.50;1.10;;;;;;;9.41;92.77;101556.50;5068305;28;20043;-82
2023/01/06 08:31:30;;;;;;;3.03;1.35;;;;;;;9.41;93.21;101566.00;5073943;28;20380;-82
2023/01/06 08:33:55;;;;;;;2.40;1.13;;;;;;;9.42;93.21;101572.91;5065471;28;20568;-82
2023/01/06 08:36:22;;;;;;;2.47;1.30;;;;;;;9.45;92.76;101569.44;5057591;28;20025;-82
2023/01/06 08:38:49;;;;;;;2.63;1.48;;;;;;;9.45;93.05;101583.28;5063824;28;20086;-83
2023/01/06 08:41:15;;;;;;;1.83;1.48;;;;;;;9.46;93.29;101594.56;5067089;28;20028;-83
2023/01/06 08:43:43;;;;;;;2.30;1.50;;;;;;;9.48;93.22;101598.00;5061960;28;20028;-82
2023/01/06 08:46:11;;;;;;;2.47;1.67;;;;;;;9.49;93.35;101594.50;5058333;28;20028;-82
2023/01/06 08:48:36;;;;;;;3.30;1.80;;;;;;;9.52;93.40;101590.16;5069796;28;20066;-82
2023/01/06 08:51:06;;;;;;;2.35;1.80;;;;;;;9.52;93.44;101589.28;5063399;28;20025;-81
2023/01/06 08:53:32;;;;;;;2.72;1.80;;;;;;;9.56;93.34;101601.38;5072994;28;21214;-82
2023/01/06 08:55:57;;;;;;;3.35;1.67;;;;;;;9.57;93.25;101597.91;5074282;28;20696;-81
2023/01/06 08:58:23;;;;;;;2.38;2.00;;;;;;;9.57;93.36;101603.94;5070096;28;20066;-81
2023/01/06 09:00:48;;;;;;;1.83;1.70;;;;;;;9.60;93.41;101612.59;5077243;28;20431;-82
2023/01/06 09:03:15;;;;;;;1.98;1.77;;;;;;;9.60;93.31;101605.66;5074378;28;20555;-81
2023/01/06 09:05:40;;;;;;;3.45;1.95;;;;;;;9.65;92.90;101606.47;5079454;28;20105;-82
2023/01/06 09:08:06;;;;;;;3.63;1.90;;;;;;;9.70;92.82;101603.84;5077374;28;20037;-82
2023/01/06 09:10:31;;;;;;;3.90;2.67;;;;;;;9.70;93.02;101601.25;5075183;28;20055;-82
2023/01/06 09:12:56;;;;;;;3.42;2.72;;;;;;;9.71;93.05;101610.78;5081329;28;20028;-82
2023/01/06 09:15:21;;;;;;;2.80;2.13;;;;;;;9.71;92.74;101618.56;5078238;28;20082;-82
2023/01/06 09:17:47;;;;;;;3.47;2.50;;;;;;;9.71;92.68;101619.41;5062883;28;20162;-81
2023/01/06 09:20:12;;;;;;;3.95;2.63;;;;;;;9.72;92.88;101612.50;5075882;28;20188;-80
2023/01/06 09:22:37;;;;;;;3.17;2.72;;;;;;;9.75;92.37;101616.78;5069920;28;20132;-81
2023/01/06 09:25:03;;;;;;;3.80;2.78;;;;;;;9.73;92.34;101614.22;5080053;28;20032;-82
2023/01/06 09:27:28;;;;;;;3.17;2.88;;;;;;;9.72;92.58;101634.13;5075686;28;20607;-81
2023/01/06 09:29:54;;;;;;;3.45;2.80;;;;;;;9.72;92.39;101633.28;5075329;28;20035;-81
2023/01/06 09:32:19;;;;;;;3.75;3.17;;;;;;;9.68;92.28;101641.97;5082178;28;20036;-81
2023/01/06 09:34:44;;;;;;;4.22;3.20;;;;;;;9.73;92.27;101640.19;5060839;28;20024;-81
2023/01/06 09:37:09;;;;;;;3.50;3.20;;;;;;;9.71;92.38;101652.34;5078463;28;20028;-81
2023/01/06 09:39:38;;;;;;;4.13;3.10;;;;;;;9.75;92.38;101663.56;5077603;28;20061;-82
2023/01/06 09:42:17;;;;;;;5.07;3.50;;;;;;;9.79;92.49;101663.50;5079725;28;20027;-81
2023/01/06 09:44:59;;;;;;;5.80;3.30;;;;;;;9.89;92.02;101660.84;5070222;28;20034;-82
2023/01/06 09:47:31;;;;;;;4.80;3.47;;;;;;;9.96;91.73;101672.88;5081921;28;20028;-82
2023/01/06 09:50:13;;;;;;;4.65;3.88;;;;;;;10.01;91.86;101671.13;5076874;28;20112;-81
2023/01/06 09:52:41;;;;;;;;;;;;;;;10.07;91.89;101673.66;5081155;28;20555;-81
2023/01/06 09:55:25;;;;;;;4.85;3.60;;;;;;;10.10;90.85;101686.59;5072586;28;20060;-82
2023/01/06 09:57:57;;;;;;;7.00;3.90;;;;;;;10.11;90.92;101688.31;5074339;28;20510;-81
2023/01/06 10:00:41;;;;;;;5.35;4.15;;;;;;;10.09;90.88;101684.88;5072849;28;20032;-82
2023/01/06 10:03:16;;;;;;;7.82;3.90;;;;;;;10.11;90.54;101679.69;5077978;28;20071;-81
2023/01/06 10:05:56;;;;;;;5.78;4.35;;;;;;;10.13;90.41;101683.97;5083231;28;20028;-82
2023/01/06 10:08:24;;;;;;;6.63;4.22;;;;;;;10.17;89.88;101687.41;5082011;28;20051;-81
2023/01/06 10:11:27;;;;;;;8.55;3.80;;;;;;;10.23;90.72;101686.50;5083825;28;20130;-81
2023/01/06 10:14:13;;;;;;;7.38;4.25;;;;;;;10.23;90.14;101687.34;5031858;28;20139;-81
2023/01/06 10:16:57;;;;;;;6.70;3.53;;;;;;;10.27;89.90;101693.38;5082027;28;20028;-81
2023/01/06 10:19:25;;;;;;;6.57;4.10;;;;;;;10.27;89.09;101693.38;5082220;28;20036;-81
2023/01/06 10:22:17;;;;;;;5.55;3.65;;;;;;;10.29;89.68;101689.00;5082633;28;20027;-81
2023/01/06 10:24:53;;;;;;;6.22;3.97;;;;;;;10.29;89.31;101691.63;5081734;28;20035;-80
2023/01/06 10:27:30;;;;;;;5.30;4.00;;;;;;;10.33;89.10;101696.75;5079661;28;20051;-82
2023/01/06 10:29:58;;;;;;;6.75;3.78;;;;;;;10.33;88.60;101672.50;5080853;28;20118;-81
2023/01/06 10:32:30;;;;;;;5.97;3.83;;;;;;;10.37;88.67;101679.41;5081960;28;20449;-81
2023/01/06 10:34:56;;;;;;;5.88;3.97;;;;;;;10.44;87.92;101681.06;5082296;28;20076;-80
2023/01/06 10:37:32;;;;;;;6.47;3.72;;;;;;;10.46;87.78;101666.31;5083017;28;20035;-81
2023/01/06 10:40:12;;;;;;;5.68;3.88;;;;;;;10.52;87.39;101672.31;5060713;28;20147;-81
2023/01/06 10:42:57;;;;;;;7.43;3.70;;;;;;;10.56;87.51;101677.47;5082945;28;20102;-81
2023/01/06 10:45:34;;;;;;;7.00;3.90;;;;;;;10.60;87.25;101683.47;5081263;28;20067;-82
2023/01/06 10:48:02;;;;;;;4.85;3.78;;;;;;;10.57;86.46;101683.53;5082434;28;20038;-80
2023/01/06 10:50:27;;;;;;;8.32;3.78;;;;;;;10.57;86.67;101680.94;5083654;28;20094;-81
2023/01/06 10:52:53;;;;;;;7.85;3.67;;;;;;;10.58;85.75;101687.88;5073795;28;20028;-83
2023/01/06 10:55:24;;;;;;;7.32;3.85;;;;;;;10.60;85.48;101680.88;5082617;28;20115;-83
2023/01/06 10:57:51;;;;;;;5.93;3.60;;;;;;;10.68;85.91;101678.19;5082313;28;20056;-81
2023/01/06 11:00:22;;;;;;;6.10;3.40;;;;;;;10.80;86.02;101684.97;5082497;28;20035;-81
2023/01/06 11:02:54;;;;;;;5.40;3.38;;;;;;;10.92;84.66;101677.03;5079492;28;20035;-81
2023/01/06 11:05:24;;;;;;;5.97;3.30;;;;;;;11.00;84.23;101676.91;5084405;28;20032;-81
2023/01/06 11:08:02;;;;;;;7.18;2.60;;;;;;;11.12;84.54;101686.28;5079668;28;20390;-82
2023/01/06 11:10:37;;;;;;;5.25;2.70;;;;;;;11.24;83.99;101688.72;5077508;28;20269;-81
2023/01/06 11:13:04;;;;;;;5.90;2.60;;;;;;;11.35;81.51;101686.81;5066471;28;20048;-81
2023/01/06 11:15:37;;;;;;;4.88;2.40;;;;;;;11.45;81.76;101681.44;5085008;28;20032;-81
2023/01/06 11:18:05;;;;;;;7.20;2.58;;;;;;;11.48;80.02;101681.38;5083711;28;20742;-81
2023/01/06 11:20:33;;;;;;;5.25;2.78;;;;;;;11.51;80.34;101684.84;5079391;28;20032;-81
2023/01/06 11:23:13;;;;;;;4.15;2.63;;;;;;;11.57;81.30;101680.38;5082326;28;20028;-82
2023/01/06 11:25:38;;;;;;;4.97;3.05;;;;;;;11.59;79.77;101684.69;5083120;28;20032;-83
2023/01/06 11:28:20;;;;;;;5.82;3.20;;;;;;;11.63;80.95;101675.94;5085189;28;20028;-82
2023/01/06 11:30:52;;;;;;;;;;;;;;;11.64;81.71;101684.63;5079890;28;20077;-82
2023/01/06 11:33:21;;;;;;;5.10;3.47;;;;;;;11.61;79.64;101680.34;5081232;28;19934;-82
2023/01/06 11:35:48;;;;;;;5.22;3.60;;;;;;;11.64;79.82;101680.25;5066407;28;20031;-81
2023/01/06 11:38:15;;;;;;;6.53;3.92;;;;;;;11.68;79.07;101678.47;5065051;28;20105;-82
2023/01/06 11:40:44;;;;;;;5.95;3.90;;;;;;;11.70;79.11;101668.84;5079227;28;20024;-81
2023/01/06 11:43:18;;;;;;;7.68;4.40;;;;;;;11.67;78.34;101667.16;5085678;28;20116;-82
2023/01/06 11:45:48;;;;;;;7.47;4.35;;;;;;;11.64;77.56;101667.22;5077345;28;20028;-81